Terminal Aerodrome Forecast
Issued by NWS Bismarck, ND

Home | Current Version | Previous Version | Graphics & Text | Print | Product List | Glossary On
Versions: 1 2 3 4 5 6 7 8 9 10 11 12 13 14 15 16 17
643
FTUS43 KBIS 090524
TAFISN
TAF
KISN 090524Z 0906/1006 32008KT P6SM FEW250
     FM090900 27006KT P6SM FEW250
     FM091800 26010KT P6SM FEW250
     FM092200 26010KT P6SM FEW250 WS020/31035KT=

USA.gov is the U.S. government's official web portal to all federal, state and local government web resources and services.